Terminal Aerodrome Forecast
Issued by NWS Twin Cities, MN

Home | Current Version | Previous Version | Text Only | Print | Product List | Glossary On
Versions: 1 2 3 4 5 6 7 8 9 10 11 12 13 14 15 16 17 18
374
FTUS43 KMPX 272021 AAA
TAFEAU
TAF AMD
KEAU 272021Z 2720/2818 05003KT P6SM SCT025 OVC045
     FM280400 04004KT 3SM BR SCT035
     FM281000 VRB02KT 1SM BR BKN015
     FM281400 VRB03KT 6SM BR SCT015=

USA.gov is the U.S. government's official web portal to all federal, state and local government web resources and services.